Time;durP1;ratioP1;P1;durP2;ratioP2;P2;SDS_P1;SDS_P2;PMS_P1;PMS_P2;Temp;Humidity;BMP_temperature;BMP_pressure;BME280_temperature;BME280_humidity;BME280_pressure;Samples;Min_cycle;Max_cycle;Signal;HPM_P1;HPM_P2
2022/10/17 00:01:28;;;;;;;21.85;8.55;;;11.50;99.90;;;;;;4994167;28;20140;-71
2022/10/17 00:03:54;;;;;;;20.05;7.32;;;11.40;99.90;;;;;;4995642;28;20053;-71
2022/10/17 00:06:20;;;;;;;18.65;7.68;;;11.80;99.90;;;;;;4995119;28;20564;-72
2022/10/17 00:08:45;;;;;;;20.23;7.93;;;11.60;99.90;;;;;;4995056;28;20050;-72
2022/10/17 00:11:20;;;;;;;13.52;6.93;;;11.60;99.90;;;;;;4995006;28;20113;-71
2022/10/17 00:13:47;;;;;;;19.88;6.65;;;12.30;99.90;;;;;;4994980;28;20372;-71
2022/10/17 00:16:14;;;;;;;17.27;6.72;;;11.40;99.90;;;;;;4995113;28;20086;-72
2022/10/17 00:18:40;;;;;;;15.32;7.10;;;11.40;99.90;;;;;;4995179;28;20129;-71
2022/10/17 00:21:13;;;;;;;14.93;7.30;;;11.30;99.90;;;;;;4995665;28;20526;-72
2022/10/17 00:23:39;;;;;;;18.08;6.60;;;11.60;99.90;;;;;;4995081;28;20388;-72
2022/10/17 00:26:05;;;;;;;18.60;6.68;;;11.40;99.90;;;;;;4995108;28;20060;-72
2022/10/17 00:28:31;;;;;;;13.60;6.10;;;12.10;99.90;;;;;;4994968;28;20471;-72
2022/10/17 00:31:00;;;;;;;16.90;6.15;;;11.40;99.90;;;;;;4994795;28;20388;-72
2022/10/17 00:33:27;;;;;;;13.05;6.05;;;11.50;99.90;;;;;;4995141;28;20084;-73
2022/10/17 00:36:12;;;;;;;21.20;5.68;;;11.60;99.90;;;;;;4994525;28;20506;-72
2022/10/17 00:38:40;;;;;;;15.57;4.95;;;11.20;99.90;;;;;;4994945;28;20133;-72
2022/10/17 00:41:12;;;;;;;14.00;5.88;;;11.40;99.90;;;;;;4994781;28;20047;-72
2022/10/17 00:44:19;;;;;;;14.65;5.28;;;11.70;99.90;;;;;;4995206;28;20042;-72
2022/10/17 00:46:45;;;;;;;15.30;5.05;;;11.70;99.90;;;;;;4993444;28;20058;-72
2022/10/17 00:49:11;;;;;;;10.52;4.40;;;11.60;99.90;;;;;;4994640;28;20565;-72
2022/10/17 00:51:44;;;;;;;11.25;4.72;;;12.00;99.90;;;;;;4994679;28;20104;-72
2022/10/17 00:54:12;;;;;;;11.52;4.93;;;11.80;99.90;;;;;;4994445;28;20034;-72
2022/10/17 00:56:39;;;;;;;16.05;5.53;;;11.50;99.90;;;;;;4995231;28;20371;-71
2022/10/17 00:59:07;;;;;;;14.63;5.63;;;11.90;99.90;;;;;;4994424;28;20145;-71
2022/10/17 01:01:34;;;;;;;14.68;5.85;;;11.80;99.90;;;;;;4994452;28;20050;-72
2022/10/17 01:04:00;;;;;;;17.55;5.57;;;11.90;99.90;;;;;;4994331;28;20042;-72
2022/10/17 01:06:26;;;;;;;15.18;6.32;;;11.60;99.90;;;;;;4994283;28;20046;-72
2022/10/17 01:08:52;;;;;;;20.38;7.03;;;11.90;99.90;;;;;;4994126;28;20341;-72
2022/10/17 01:11:30;;;;;;;20.42;7.78;;;11.70;99.90;;;;;;4993895;28;20042;-72
2022/10/17 01:14:32;;;;;;;15.73;8.20;;;11.90;99.90;;;;;;4994002;28;20564;-72
2022/10/17 01:17:15;;;;;;;20.83;8.73;;;11.70;99.90;;;;;;4994692;28;20438;-72
2022/10/17 01:20:02;;;;;;;20.30;8.95;;;11.80;99.90;;;;;;4994609;28;20058;-72
2022/10/17 01:23:03;;;;;;;19.45;7.93;;;11.90;99.90;;;;;;4994881;28;20133;-72
2022/10/17 01:25:43;;;;;;;19.50;6.40;;;12.00;99.90;;;;;;4993576;28;20583;-71
2022/10/17 01:28:15;;;;;;;13.95;7.32;;;12.10;99.90;;;;;;4994709;28;20042;-72
2022/10/17 01:30:52;;;;;;;17.63;6.25;;;12.30;99.90;;;;;;4993639;28;20479;-71
2022/10/17 01:33:36;;;;;;;23.30;6.20;;;12.10;99.90;;;;;;4994583;28;20433;-72
2022/10/17 01:36:34;;;;;;;16.40;5.63;;;12.10;99.90;;;;;;4992816;28;20129;-71
2022/10/17 01:39:08;;;;;;;14.25;5.15;;;12.20;99.90;;;;;;4993983;28;20043;-71
2022/10/17 01:41:51;;;;;;;12.60;5.70;;;12.20;99.90;;;;;;4994121;28;20050;-72
2022/10/17 01:44:22;;;;;;;10.40;5.28;;;12.30;99.90;;;;;;4994479;28;20132;-70
2022/10/17 01:46:55;;;;;;;15.52;5.90;;;12.00;99.90;;;;;;4993914;28;20488;-71
2022/10/17 01:49:25;;;;;;;13.07;5.32;;;12.30;99.90;;;;;;4994176;28;20391;-71
2022/10/17 01:51:56;;;;;;;12.13;5.40;;;12.00;99.90;;;;;;4993841;28;20054;-72
2022/10/17 01:54:29;;;;;;;12.20;5.40;;;12.20;99.90;;;;;;4993978;28;20479;-74
2022/10/17 01:57:01;;;;;;;15.00;5.47;;;12.30;99.90;;;;;;4994054;28;20053;-71
2022/10/17 01:59:37;;;;;;;15.45;5.25;;;12.40;99.90;;;;;;4993765;28;20047;-70
2022/10/17 02:02:05;;;;;;;12.73;5.43;;;12.00;99.90;;;;;;4994850;28;20073;-71
2022/10/17 02:04:30;;;;;;;13.50;5.50;;;12.20;99.90;;;;;;4993687;28;20052;-70
2022/10/17 02:06:56;;;;;;;15.27;5.90;;;11.90;99.90;;;;;;4993660;28;20042;-72
2022/10/17 02:09:26;;;;;;;15.00;6.03;;;11.90;99.90;;;;;;4993764;28;20085;-71
2022/10/17 02:12:11;;;;;;;19.35;6.32;;;12.10;99.90;;;;;;4993654;28;20395;-74
2022/10/17 02:14:55;;;;;;;16.08;7.00;;;12.20;99.90;;;;;;4992892;28;20379;-70
2022/10/17 02:17:51;;;;;;;15.63;6.68;;;12.10;99.90;;;;;;4994444;28;20069;-72
2022/10/17 02:20:31;;;;;;;13.43;6.65;;;12.20;99.90;;;;;;4993671;28;20053;-71
2022/10/17 02:23:32;;;;;;;15.02;7.43;;;11.80;99.90;;;;;;4995496;28;20038;-71
2022/10/17 02:26:03;;;;;;;14.10;7.18;;;11.90;99.90;;;;;;4997295;28;20207;-72
2022/10/17 02:28:42;;;;;;;19.77;8.38;;;12.10;99.90;;;;;;4998024;28;20078;-72
2022/10/17 02:31:14;;;;;;;12.90;7.90;;;12.10;99.90;;;;;;4996764;28;20062;-70
2022/10/17 02:33:53;;;;;;;14.57;8.45;;;12.30;99.90;;;;;;4997256;28;20121;-73
2022/10/17 02:36:24;;;;;;;16.48;8.90;;;12.00;99.90;;;;;;4997043;28;20084;-72
2022/10/17 02:38:51;;;;;;;16.50;9.30;;;12.10;99.90;;;;;;4997313;28;20046;-71
2022/10/17 02:41:18;;;;;;;18.98;9.63;;;12.00;99.90;;;;;;4997075;28;20053;-71
2022/10/17 02:43:46;;;;;;;18.98;10.05;;;13.10;99.90;;;;;;4996581;28;20506;-71
2022/10/17 02:46:19;;;;;;;17.88;9.48;;;12.10;99.90;;;;;;4996967;28;20046;-71
2022/10/17 02:48:54;;;;;;;21.30;10.48;;;12.10;99.90;;;;;;4996859;28;20503;-72
2022/10/17 02:51:29;;;;;;;16.55;9.75;;;12.00;99.90;;;;;;4997288;28;20050;-72
2022/10/17 02:54:04;;;;;;;18.27;11.02;;;11.90;99.90;;;;;;4997457;28;20129;-72
2022/10/17 02:56:35;;;;;;;18.85;10.02;;;12.00;99.90;;;;;;4997200;28;20096;-71
2022/10/17 02:59:04;;;;;;;24.95;10.52;;;12.10;99.90;;;;;;4996665;28;20057;-71
2022/10/17 03:01:30;;;;;;;17.83;9.48;;;12.20;99.90;;;;;;4996588;28;20052;-72
2022/10/17 03:04:06;;;;;;;17.35;9.75;;;12.30;99.90;;;;;;4997053;28;20066;-72
2022/10/17 03:06:32;;;;;;;;;;;12.80;99.90;;;;;;4997012;28;20053;-72
2022/10/17 03:08:57;;;;;;;15.07;10.13;;;12.00;99.90;;;;;;4996198;28;19925;-72
2022/10/17 03:11:23;;;;;;;18.15;9.93;;;12.40;99.90;;;;;;4996596;28;20050;-71
2022/10/17 03:13:49;;;;;;;17.05;10.75;;;12.00;99.90;;;;;;4996880;28;20047;-72
2022/10/17 03:16:14;;;;;;;19.52;10.13;;;12.00;99.90;;;;;;4996057;28;20452;-72
2022/10/17 03:18:40;;;;;;;24.45;10.50;;;12.10;99.90;;;;;;4997065;28;20047;-72
2022/10/17 03:21:06;;;;;;;19.45;11.15;;;12.20;99.90;;;;;;4996293;28;20051;-73
2022/10/17 03:23:31;;;;;;;20.45;10.88;;;12.30;99.90;;;;;;4996301;28;20048;-76
2022/10/17 03:25:57;;;;;;;15.75;10.82;;;11.90;99.90;;;;;;4978991;28;20053;-72
2022/10/17 03:28:23;;;;;;;18.63;10.50;;;11.90;99.90;;;;;;4996107;28;20197;-72
2022/10/17 03:30:49;;;;;;;19.08;10.38;;;12.20;99.90;;;;;;4994706;28;20077;-72
2022/10/17 03:33:14;;;;;;;18.33;10.45;;;12.00;99.90;;;;;;4995662;28;20051;-76
2022/10/17 03:35:40;;;;;;;15.30;10.63;;;12.40;99.90;;;;;;4995960;28;20042;-72
2022/10/17 03:38:05;;;;;;;18.48;10.98;;;12.20;99.90;;;;;;4995968;28;20043;-78
2022/10/17 03:40:31;;;;;;;19.30;10.80;;;12.30;99.90;;;;;;4995915;28;20046;-73
2022/10/17 03:42:57;;;;;;;17.83;10.88;;;11.90;99.90;;;;;;4994759;28;20046;-72
2022/10/17 03:45:22;;;;;;;17.13;11.32;;;11.80;99.90;;;;;;4996328;28;20093;-72
2022/10/17 03:47:48;;;;;;;20.58;11.35;;;12.00;99.90;;;;;;4995503;28;20081;-71
2022/10/17 03:50:14;;;;;;;16.50;11.40;;;12.00;99.90;;;;;;4995399;28;20090;-72
2022/10/17 03:52:39;;;;;;;23.33;13.15;;;12.20;99.90;;;;;;4995699;28;20046;-73
2022/10/17 03:55:05;;;;;;;20.27;12.57;;;12.30;99.90;;;;;;4994557;28;20050;-72
2022/10/17 03:57:34;;;;;;;20.70;12.68;;;12.70;99.90;;;;;;4996048;28;20109;-73
2022/10/17 03:59:59;;;;;;;22.17;13.27;;;12.40;99.90;;;;;;4996228;28;20129;-72
2022/10/17 04:02:25;;;;;;;22.08;13.32;;;12.60;99.90;;;;;;4994611;28;20462;-73
2022/10/17 04:04:51;;;;;;;20.52;14.35;;;12.20;99.90;;;;;;4995491;28;20077;-72
2022/10/17 04:07:16;;;;;;;19.92;14.05;;;12.30;99.90;;;;;;4995598;28;20057;-72
2022/10/17 04:09:42;;;;;;;19.60;13.30;;;12.60;99.90;;;;;;4994602;28;20050;-74
2022/10/17 04:12:08;;;;;;;23.50;14.85;;;12.60;99.90;;;;;;4995139;28;20057;-72
2022/10/17 04:14:33;;;;;;;23.10;14.23;;;12.40;99.90;;;;;;4995241;28;20057;-73
2022/10/17 04:16:59;;;;;;;23.25;14.82;;;12.50;99.90;;;;;;4995234;28;20048;-73
2022/10/17 04:19:25;;;;;;;20.15;15.27;;;12.50;99.90;;;;;;4994503;28;20061;-73
2022/10/17 04:21:50;;;;;;;25.80;15.23;;;12.40;99.90;;;;;;4995180;28;20086;-73
2022/10/17 04:24:16;;;;;;;21.83;15.32;;;12.60;99.90;;;;;;4995145;28;20053;-72
2022/10/17 04:26:42;;;;;;;19.17;15.40;;;12.40;99.90;;;;;;4995304;28;20049;-72
2022/10/17 04:29:07;;;;;;;24.08;15.48;;;12.50;99.90;;;;;;4977742;28;20054;-72
2022/10/17 04:31:33;;;;;;;27.33;16.73;;;12.40;99.90;;;;;;4994437;28;20058;-72
2022/10/17 04:33:59;;;;;;;26.13;15.88;;;12.80;99.90;;;;;;4994764;28;20054;-72
2022/10/17 04:36:24;;;;;;;21.10;15.65;;;12.40;99.90;;;;;;4994885;28;20517;-72
2022/10/17 04:38:50;;;;;;;24.73;15.23;;;12.30;99.90;;;;;;4994835;28;20610;-72
2022/10/17 04:41:17;;;;;;;23.25;15.13;;;12.50;99.90;;;;;;4994758;28;20054;-72
2022/10/17 04:43:43;;;;;;;23.85;15.27;;;12.50;99.90;;;;;;4994723;28;20042;-72
2022/10/17 04:46:13;;;;;;;22.90;16.45;;;12.60;99.90;;;;;;4995084;28;20379;-72
2022/10/17 04:48:39;;;;;;;25.33;15.52;;;12.60;99.90;;;;;;4994751;28;20089;-72
2022/10/17 04:51:11;;;;;;;23.98;15.60;;;12.60;99.90;;;;;;4994348;28;20061;-72
2022/10/17 04:53:37;;;;;;;24.17;14.75;;;12.30;99.90;;;;;;4994589;28;20390;-71
2022/10/17 04:56:12;;;;;;;22.20;15.20;;;12.70;99.90;;;;;;4994678;28;20050;-72
2022/10/17 04:58:38;;;;;;;23.88;15.48;;;12.50;99.90;;;;;;4994449;28;20121;-71
2022/10/17 05:01:09;;;;;;;24.08;15.95;;;12.50;99.90;;;;;;4994587;28;20053;-72
2022/10/17 05:03:35;;;;;;;24.08;16.30;;;12.70;99.90;;;;;;4994324;28;20065;-72
2022/10/17 05:06:08;;;;;;;24.63;16.48;;;12.40;99.90;;;;;;4994767;28;20049;-72
2022/10/17 05:08:34;;;;;;;25.85;16.42;;;12.40;99.90;;;;;;4994718;28;20046;-72
2022/10/17 05:11:01;;;;;;;25.33;16.58;;;12.70;99.90;;;;;;4994614;28;20068;-72
2022/10/17 05:13:26;;;;;;;23.65;17.27;;;12.50;99.90;;;;;;4994862;28;20074;-72
2022/10/17 05:15:52;;;;;;;26.40;16.92;;;12.90;99.90;;;;;;4994376;28;20582;-72
2022/10/17 05:18:18;;;;;;;33.50;18.08;;;12.30;99.90;;;;;;4994017;28;20527;-72
2022/10/17 05:20:43;;;;;;;23.67;17.00;;;12.80;99.90;;;;;;4993967;28;20089;-74
2022/10/17 05:23:09;;;;;;;24.33;17.52;;;12.70;99.90;;;;;;4992711;28;20050;-73
2022/10/17 05:25:35;;;;;;;25.63;16.65;;;13.60;99.90;;;;;;4994031;28;20077;-73
2022/10/17 05:28:01;;;;;;;28.42;17.48;;;12.70;99.90;;;;;;4994012;28;20050;-73
2022/10/17 05:30:26;;;;;;;29.17;18.10;;;13.90;99.90;;;;;;4994023;28;20060;-73
2022/10/17 05:32:53;;;;;;;24.45;17.42;;;13.00;99.90;;;;;;4993896;28;20088;-72
2022/10/17 05:35:19;;;;;;;25.27;17.48;;;13.00;99.90;;;;;;4994043;28;20086;-72
2022/10/17 05:37:45;;;;;;;30.23;18.77;;;12.60;99.90;;;;;;4993772;28;20137;-73
2022/10/17 05:40:11;;;;;;;28.75;18.52;;;12.60;99.90;;;;;;4994304;28;20085;-74
2022/10/17 05:42:37;;;;;;;31.08;19.05;;;13.00;99.90;;;;;;4993832;28;20054;-73
2022/10/17 05:45:03;;;;;;;33.53;20.02;;;12.90;99.90;;;;;;4993806;28;20363;-73
2022/10/17 05:47:29;;;;;;;38.72;19.80;;;12.80;99.90;;;;;;4993708;28;20050;-73
2022/10/17 05:49:54;;;;;;;33.05;19.63;;;13.20;99.90;;;;;;4992464;28;20119;-73
2022/10/17 05:52:20;;;;;;;33.25;19.25;;;12.60;99.90;;;;;;4993720;28;20049;-72
2022/10/17 05:54:46;;;;;;;29.98;18.20;;;12.70;99.90;;;;;;4993628;28;20391;-73
2022/10/17 05:57:11;;;;;;;33.53;20.58;;;13.00;99.90;;;;;;4994189;28;20046;-72
2022/10/17 05:59:37;;;;;;;32.90;22.02;;;13.00;99.90;;;;;;4997626;28;20046;-73
2022/10/17 06:02:03;;;;;;;38.70;21.17;;;12.60;99.90;;;;;;4997619;28;20101;-73
2022/10/17 06:04:28;;;;;;;37.45;20.88;;;12.70;99.90;;;;;;4997582;28;20054;-73
2022/10/17 06:06:55;;;;;;;40.08;21.63;;;12.70;99.90;;;;;;4998173;28;20046;-73
2022/10/17 06:09:22;;;;;;;37.53;22.20;;;12.90;99.90;;;;;;4998185;28;20042;-73
2022/10/17 06:11:48;;;;;;;36.28;22.15;;;12.70;99.90;;;;;;4997370;28;20046;-73
2022/10/17 06:14:13;;;;;;;36.28;21.92;;;13.20;99.90;;;;;;4997702;28;20064;-73
2022/10/17 06:16:39;;;;;;;38.35;22.25;;;13.20;99.90;;;;;;4997342;28;20176;-73
2022/10/17 06:19:05;;;;;;;41.40;23.38;;;13.00;99.90;;;;;;5012830;28;20046;-73
2022/10/17 06:21:35;;;;;;;42.03;22.50;;;12.70;99.90;;;;;;4997263;28;20096;-74
2022/10/17 06:24:00;;;;;;;36.47;23.05;;;13.30;99.90;;;;;;4997210;28;20047;-73
2022/10/17 06:26:26;;;;;;;42.40;23.33;;;13.10;99.90;;;;;;4997888;28;20200;-73
2022/10/17 06:28:53;;;;;;;40.08;24.77;;;13.10;99.90;;;;;;4996371;28;20100;-73
2022/10/17 06:31:19;;;;;;;44.25;25.13;;;13.20;99.90;;;;;;4998082;28;20148;-73
2022/10/17 06:33:45;;;;;;;;;;;13.10;99.90;;;;;;4998209;28;20045;-73
2022/10/17 06:36:13;;;;;;;40.08;23.60;;;13.60;99.90;;;;;;4997517;28;19921;-73
2022/10/17 06:38:39;;;;;;;44.08;25.75;;;13.60;99.90;;;;;;4996853;28;20506;-73
2022/10/17 06:41:07;;;;;;;47.75;24.55;;;13.60;99.90;;;;;;4995594;28;20439;-73
2022/10/17 06:43:36;;;;;;;42.38;24.73;;;13.50;99.90;;;;;;4997085;28;20139;-73
2022/10/17 06:46:03;;;;;;;38.00;24.30;;;13.30;99.90;;;;;;4995835;28;20517;-73
2022/10/17 06:48:29;;;;;;;38.80;23.33;;;13.50;99.90;;;;;;4997147;28;20093;-73
2022/10/17 06:50:59;;;;;;;43.47;25.73;;;13.60;99.90;;;;;;4996585;28;20078;-73
2022/10/17 06:53:27;;;;;;;44.15;23.90;;;13.60;99.90;;;;;;4996507;28;20061;-73
2022/10/17 06:55:54;;;;;;;39.22;24.10;;;13.80;99.90;;;;;;4996587;28;20409;-73
2022/10/17 07:04:33;;;;;;;41.70;24.50;;;13.80;99.90;;;;;;5142144;27;20429;-71
2022/10/17 07:07:01;;;;;;;43.53;25.67;;;13.50;99.90;;;;;;5109150;28;20048;-70
2022/10/17 07:09:28;;;;;;;47.47;25.17;;;13.90;99.90;;;;;;5108305;28;20051;-70
2022/10/17 07:11:53;;;;;;;44.03;25.13;;;13.90;99.90;;;;;;5109444;28;20396;-69
2022/10/17 07:14:19;;;;;;;41.50;24.77;;;13.50;99.90;;;;;;5109413;28;20038;-70
2022/10/17 07:16:45;;;;;;;37.65;24.05;;;14.10;99.90;;;;;;5109372;28;20044;-71
2022/10/17 07:19:10;;;;;;;46.17;26.25;;;14.10;99.90;;;;;;5108993;28;20043;-70
2022/10/17 07:21:36;;;;;;;41.92;23.75;;;13.90;99.90;;;;;;5109230;28;20094;-70
2022/10/17 07:24:02;;;;;;;40.53;23.38;;;14.40;99.90;;;;;;5109072;28;20488;-70
2022/10/17 07:26:28;;;;;;;;;;;13.90;99.90;;;;;;5109532;28;20101;-70
2022/10/17 07:28:54;;;;;;;40.00;23.60;;;14.10;99.90;;;;;;5108060;28;19928;-71
2022/10/17 07:31:21;;;;;;;38.10;23.33;;;14.30;99.90;;;;;;5108999;28;20055;-72
2022/10/17 07:33:47;;;;;;;41.50;25.05;;;14.10;99.90;;;;;;5108697;28;20052;-69
2022/10/17 07:36:14;;;;;;;36.90;22.55;;;14.10;99.90;;;;;;5108847;28;20073;-70
2022/10/17 07:38:40;;;;;;;39.00;22.50;;;14.70;99.90;;;;;;5108878;28;20064;-70
2022/10/17 07:41:08;;;;;;;33.35;22.48;;;14.60;99.90;;;;;;5108727;28;20249;-70
2022/10/17 07:43:35;;;;;;;39.85;22.35;;;14.40;99.90;;;;;;5108647;28;20048;-70
2022/10/17 07:46:02;;;;;;;34.63;21.83;;;14.70;99.90;;;;;;5108526;28;20048;-70
2022/10/17 07:48:28;;;;;;;31.27;20.25;;;15.10;99.90;;;;;;5106948;28;20051;-70
2022/10/17 07:50:54;;;;;;;37.97;21.65;;;14.30;99.90;;;;;;5108821;28;20051;-71
2022/10/17 07:53:19;;;;;;;35.70;21.92;;;14.70;99.90;;;;;;5108734;28;20044;-70
2022/10/17 07:55:46;;;;;;;32.58;20.92;;;14.60;99.90;;;;;;5108986;28;20052;-71
2022/10/17 07:58:12;;;;;;;34.42;20.98;;;14.40;99.90;;;;;;5106330;28;20434;-71
2022/10/17 08:00:38;;;;;;;35.05;21.30;;;15.10;99.90;;;;;;5108621;28;20043;-69
2022/10/17 08:03:05;;;;;;;31.42;19.90;;;14.40;99.90;;;;;;5087167;28;20056;-71
2022/10/17 08:05:31;;;;;;;31.55;20.23;;;14.70;99.90;;;;;;5108314;28;20131;-69
2022/10/17 08:07:57;;;;;;;29.17;19.48;;;14.80;99.90;;;;;;5106950;28;20496;-70
2022/10/17 08:10:28;;;;;;;33.40;20.27;;;15.10;99.90;;;;;;5108352;28;20050;-69
2022/10/17 08:12:55;;;;;;;28.88;19.38;;;15.00;99.90;;;;;;5106780;28;20055;-68
2022/10/17 08:15:22;;;;;;;27.25;18.90;;;15.00;99.90;;;;;;5098081;28;20086;-69
2022/10/17 08:17:48;;;;;;;27.73;19.30;;;15.20;99.90;;;;;;5094110;28;20127;-68
2022/10/17 08:20:14;;;;;;;29.60;18.67;;;15.00;99.90;;;;;;5093294;28;20103;-69
2022/10/17 08:22:39;;;;;;;30.67;18.85;;;15.10;99.90;;;;;;5092046;28;20043;-71
2022/10/17 08:25:05;;;;;;;;;;;15.30;99.90;;;;;;5074082;28;20046;-73
2022/10/17 08:27:34;;;;;;;26.95;17.95;;;15.60;99.90;;;;;;5083421;28;19920;-72
2022/10/17 08:30:00;;;;;;;26.77;17.10;;;15.30;99.90;;;;;;5093904;28;20050;-71
2022/10/17 08:32:28;;;;;;;28.25;17.40;;;15.40;99.90;;;;;;5092237;28;20044;-71
2022/10/17 08:34:55;;;;;;;26.80;16.92;;;15.30;99.90;;;;;;5093752;28;20112;-73
2022/10/17 08:37:21;;;;;;;25.25;15.80;;;15.30;99.90;;;;;;5091152;28;20036;-70
2022/10/17 08:39:48;;;;;;;24.30;15.65;;;15.50;99.90;;;;;;5092163;28;20048;-71
2022/10/17 08:42:33;;;;;;;26.15;15.70;;;15.40;99.90;;;;;;5075648;28;20089;-72
2022/10/17 08:45:09;;;;;;;23.08;15.52;;;15.70;99.90;;;;;;5093605;28;20056;-67
2022/10/17 08:47:38;;;;;;;23.15;16.08;;;15.60;99.90;;;;;;5085684;28;20056;-71
2022/10/17 08:50:17;;;;;;;25.65;15.27;;;16.10;99.90;;;;;;5092225;28;20044;-70
2022/10/17 08:52:54;;;;;;;22.05;15.13;;;15.60;99.90;;;;;;5093667;28;20043;-70
2022/10/17 08:55:26;;;;;;;24.52;15.35;;;15.90;99.90;;;;;;5093870;28;20449;-76
2022/10/17 08:57:51;;;;;;;20.95;14.90;;;16.10;99.90;;;;;;5093710;28;20047;-74
2022/10/17 09:00:18;;;;;;;;;;;15.90;99.90;;;;;;5092471;28;20051;-73
2022/10/17 09:02:58;;;;;;;26.48;15.27;;;16.00;99.90;;;;;;5093091;28;20352;-74
2022/10/17 09:05:24;;;;;;;22.48;14.15;;;16.00;99.90;;;;;;5093886;28;20396;-74
2022/10/17 09:07:58;;;;;;;;;;;15.70;99.90;;;;;;5094098;28;20067;-76
2022/10/17 09:10:45;;;;;;;19.67;13.48;;;16.50;99.90;;;;;;5093448;28;19924;-73
2022/10/17 09:13:28;;;;;;;19.08;12.70;;;16.20;99.90;;;;;;5091435;28;20633;-75
2022/10/17 09:16:24;;;;;;;20.42;12.00;;;16.10;99.90;;;;;;5091516;28;20495;-79
2022/10/17 09:19:02;;;;;;;20.85;12.50;;;16.20;99.90;;;;;;5093071;28;20059;-75
2022/10/17 09:21:58;;;;;;;16.83;12.35;;;16.40;99.90;;;;;;5093382;28;20066;-72
2022/10/17 09:24:34;;;;;;;22.02;12.45;;;16.20;99.90;;;;;;5093494;28;20505;-79
2022/10/17 09:26:59;;;;;;;18.07;12.40;;;16.50;99.90;;;;;;5092838;28;20055;-72
2022/10/17 09:29:25;;;;;;;;;;;16.50;99.90;;;;;;5089924;28;20056;-76
2022/10/17 09:32:02;;;;;;;17.05;12.50;;;16.60;99.90;;;;;;5093199;28;19950;-74
2022/10/17 09:34:29;;;;;;;;;;;16.60;99.90;;;;;;5093779;28;20036;-75
2022/10/17 09:36:58;;;;;;;20.42;12.68;;;16.70;99.90;;;;;;5093040;28;19930;-77
2022/10/17 09:39:30;;;;;;;18.40;12.52;;;16.70;99.90;;;;;;5091213;28;20040;-74
2022/10/17 09:42:00;;;;;;;19.60;13.05;;;18.00;99.90;;;;;;5089709;28;20051;-74
2022/10/17 09:44:33;;;;;;;20.92;13.57;;;16.70;99.90;;;;;;5091773;28;20044;-77
2022/10/17 09:47:14;;;;;;;21.10;13.80;;;16.40;99.90;;;;;;5092398;28;20051;-77
2022/10/17 09:49:45;;;;;;;25.13;14.10;;;16.20;99.90;;;;;;5092461;28;20046;-80
2022/10/17 09:52:15;;;;;;;22.35;13.90;;;16.20;99.90;;;;;;5092287;28;20092;-80
2022/10/17 09:54:54;;;;;;;23.60;14.77;;;16.20;99.90;;;;;;5092105;28;20078;-80
2022/10/17 09:57:21;;;;;;;22.10;13.82;;;16.20;99.90;;;;;;5091099;28;20189;-83
2022/10/17 10:00:03;;;;;;;24.25;14.45;;;16.20;99.90;;;;;;5091853;28;20052;-78
2022/10/17 10:02:32;;;;;;;23.05;14.98;;;16.10;99.90;;;;;;5090642;28;20522;-76
2022/10/17 10:05:04;;;;;;;25.40;14.82;;;16.40;99.90;;;;;;5092169;28;20047;-75
2022/10/17 10:07:36;;;;;;;22.85;15.18;;;16.40;99.90;;;;;;5092030;28;20055;-73
2022/10/17 10:10:04;;;;;;;24.25;14.52;;;15.90;99.90;;;;;;5091574;28;20044;-75
2022/10/17 10:12:33;;;;;;;21.98;14.82;;;16.00;99.90;;;;;;5071367;28;20052;-76
2022/10/17 10:14:59;;;;;;;22.17;15.25;;;16.50;99.90;;;;;;5071333;28;20053;-72
2022/10/17 10:17:33;;;;;;;30.13;15.77;;;16.10;99.90;;;;;;5091148;28;20043;-71
2022/10/17 10:20:00;;;;;;;26.85;15.20;;;16.00;99.90;;;;;;5090667;28;20040;-71
2022/10/17 10:22:26;;;;;;;30.20;16.63;;;16.20;99.90;;;;;;5091532;28;20141;-77
2022/10/17 10:25:09;;;;;;;;;;;16.60;99.90;;;;;;5091789;28;20473;-70
2022/10/17 10:27:38;;;;;;;33.95;16.60;;;16.20;99.90;;;;;;5091232;28;19950;-70
2022/10/17 10:30:04;;;;;;;26.77;15.63;;;16.20;99.90;;;;;;5091399;28;20071;-71
2022/10/17 10:32:34;;;;;;;27.55;15.77;;;15.90;99.90;;;;;;5091442;28;20055;-73
2022/10/17 10:35:02;;;;;;;27.98;16.33;;;16.10;99.90;;;;;;5091573;28;20135;-72
2022/10/17 10:37:38;;;;;;;30.42;16.73;;;16.40;99.90;;;;;;5090727;28;20438;-72
2022/10/17 10:40:15;;;;;;;33.95;17.75;;;16.00;99.90;;;;;;5091413;28;20051;-72
2022/10/17 10:42:41;;;;;;;31.77;17.17;;;16.20;99.90;;;;;;5091164;28;20044;-73
2022/10/17 10:45:16;;;;;;;32.83;17.33;;;16.20;99.90;;;;;;5091173;28;20116;-71
2022/10/17 10:47:58;;;;;;;39.80;18.17;;;16.20;99.90;;;;;;5071014;28;20044;-70
2022/10/17 10:50:26;;;;;;;40.05;18.17;;;16.30;99.90;;;;;;5071959;28;20055;-69
2022/10/17 10:52:55;;;;;;;42.72;18.60;;;16.00;99.90;;;;;;5091352;28;20105;-69
2022/10/17 10:55:30;;;;;;;33.80;18.33;;;16.50;99.90;;;;;;5091051;28;20047;-71
2022/10/17 10:58:02;;;;;;;32.22;17.27;;;16.10;99.90;;;;;;5089647;28;20051;-70
2022/10/17 11:00:32;;;;;;;33.38;17.55;;;16.20;99.90;;;;;;5089654;28;20085;-70
2022/10/17 11:03:14;;;;;;;32.75;17.35;;;16.00;99.90;;;;;;5089931;28;20480;-70
2022/10/17 11:05:45;;;;;;;33.95;17.90;;;16.10;99.90;;;;;;5090783;28;20169;-70
2022/10/17 11:08:37;;;;;;;36.40;18.30;;;16.50;99.90;;;;;;5090861;28;20097;-71
2022/10/17 11:11:23;;;;;;;32.75;17.63;;;16.30;99.90;;;;;;5088637;28;20111;-70
2022/10/17 11:14:10;;;;;;;32.65;17.90;;;16.60;99.90;;;;;;5090875;28;20047;-70
2022/10/17 11:16:51;;;;;;;37.05;18.65;;;16.30;99.90;;;;;;5090942;28;20055;-69
2022/10/17 11:19:39;;;;;;;36.63;18.05;;;16.40;99.90;;;;;;5090983;28;20142;-69
2022/10/17 11:22:33;;;;;;;35.83;18.70;;;16.40;99.90;;;;;;5089417;28;20036;-71
2022/10/17 11:25:29;;;;;;;38.35;18.55;;;16.20;99.90;;;;;;5086323;28;20052;-72
2022/10/17 11:27:55;;;;;;;34.95;18.55;;;16.30;99.90;;;;;;5090369;28;20036;-72
2022/10/17 11:30:22;;;;;;;;;;;16.40;99.90;;;;;;5091501;28;20409;-73
2022/10/17 11:33:01;;;;;;;32.55;18.23;;;16.30;99.90;;;;;;5090885;28;19924;-77
2022/10/17 11:35:35;;;;;;;36.40;17.70;;;16.50;99.90;;;;;;5089145;28;20854;-72
2022/10/17 11:38:01;;;;;;;38.50;19.10;;;16.30;99.90;;;;;;5090679;28;20052;-74
2022/10/17 11:40:29;;;;;;;;;;;16.50;99.90;;;;;;5090835;28;20052;-74
2022/10/17 11:43:04;;;;;;;38.13;19.10;;;16.50;99.90;;;;;;5090488;28;20330;-69
2022/10/17 11:45:35;;;;;;;36.92;18.92;;;16.20;99.90;;;;;;5089650;28;20400;-70
2022/10/17 11:48:06;;;;;;;38.38;19.52;;;16.30;99.90;;;;;;5089498;28;20066;-70
2022/10/17 11:50:39;;;;;;;45.35;21.02;;;16.50;99.90;;;;;;5093331;28;20396;-71
2022/10/17 11:53:46;;;;;;;42.25;19.83;;;16.30;99.90;;;;;;5094658;28;20119;-68
2022/10/17 11:56:17;;;;;;;35.13;18.17;;;15.80;99.90;;;;;;5073536;28;20568;-69
2022/10/17 11:58:52;;;;;;;41.90;19.60;;;16.30;99.90;;;;;;5094016;28;20089;-70
2022/10/17 12:01:43;;;;;;;36.55;19.20;;;16.30;99.90;;;;;;5093266;28;20128;-69
2022/10/17 12:04:15;;;;;;;34.53;18.55;;;16.30;99.90;;;;;;5093951;28;20056;-70
2022/10/17 12:07:05;;;;;;;33.20;19.42;;;16.40;99.90;;;;;;5093677;28;20503;-70
2022/10/17 12:09:50;;;;;;;32.22;18.23;;;16.30;99.90;;;;;;5093234;28;20092;-70
2022/10/17 12:12:27;;;;;;;28.40;17.10;;;16.30;99.90;;;;;;5118979;27;20123;-71
2022/10/17 12:15:11;;;;;;;31.42;16.50;;;16.70;99.90;;;;;;5092181;28;20039;-73
2022/10/17 12:17:40;;;;;;;30.05;16.73;;;16.20;99.90;;;;;;5092633;28;20051;-73
2022/10/17 12:20:24;;;;;;;30.73;15.70;;;16.30;99.90;;;;;;5084845;28;20052;-71
2022/10/17 12:22:50;;;;;;;27.98;14.13;;;16.50;99.90;;;;;;5089419;28;20472;-73
2022/10/17 12:25:21;;;;;;;;;;;16.10;99.90;;;;;;5094273;28;20068;-73
2022/10/17 12:27:49;;;;;;;20.73;12.73;;;16.70;99.90;;;;;;5091965;28;19956;-74
2022/10/17 12:30:16;;;;;;;21.52;13.23;;;16.50;99.90;;;;;;5093738;28;20056;-73
2022/10/17 12:32:59;;;;;;;20.33;12.65;;;16.70;99.90;;;;;;5093957;28;20101;-73
2022/10/17 12:35:26;;;;;;;19.17;12.73;;;16.70;99.90;;;;;;5093649;28;20070;-72
2022/10/17 12:37:52;;;;;;;19.98;12.02;;;16.50;99.90;;;;;;5092166;28;20480;-76
2022/10/17 12:40:36;;;;;;;;;;;16.30;99.90;;;;;;5094214;28;20051;-72
2022/10/17 12:43:27;;;;;;;21.75;12.80;;;16.40;99.90;;;;;;5092994;28;19920;-76
2022/10/17 12:45:57;;;;;;;22.25;12.55;;;16.40;99.90;;;;;;5093211;28;20048;-79
2022/10/17 12:48:41;;;;;;;26.65;13.63;;;16.20;99.90;;;;;;5093283;28;20051;-74
2022/10/17 12:51:17;;;;;;;23.70;13.93;;;16.40;99.90;;;;;;5093324;28;20047;-75
2022/10/17 12:54:09;;;;;;;23.98;13.65;;;16.30;99.90;;;;;;5073164;28;20063;-72
2022/10/17 12:56:39;;;;;;;24.42;14.00;;;16.40;99.90;;;;;;5077075;28;20070;-72
2022/10/17 12:59:27;;;;;;;23.52;14.57;;;16.20;99.90;;;;;;5092950;28;20059;-75